Greenleaf, ID (83626)

1:12 AM MST on December 06, 2016 (GMT -0700)
TimberStone Golf Course | | Change Station

Elev 2523 ft 43.64 °N, 116.84 °W | Updated 17 minutes ago

Overcast
Overcast
26.4 °F
Feels Like 17 °F
N
8.9
Wind Variable Wind from ESE

Today
High -- | Low -- °F
--% Chance of Precip.
Yesterday
High -- | Low -- °F
Precip. -- in
Pressure 30.05 in
Visibility 10.0 miles
Clouds Mostly Cloudy 8000 ft
Overcast 9500 ft
Windchill 17 °F
Dew Point 17 °F
Humidity 67%
Rainfall 0.00 in
Snow Depth Not available.
8:06 AM 5:10 PM
Waxing Crescent, 39% visible
METAR KEUL 060756Z AUTO 12012KT 10SM BKN080 OVC095 M04/M09 A2998 RMK AO2 SLP175 T10441089 FZRANO
Pressure 30.05 in
Visibility 10.0 miles
Clouds Mostly Cloudy 8000 ft
Overcast 9500 ft
Windchill 17 °F
Dew Point 17 °F
Humidity 67%
Rainfall 0.00 in
Snow Depth Not available.
8:06 AM 5:10 PM
Waxing Crescent, 39% visible
METAR KEUL 060756Z AUTO 12012KT 10SM BKN080 OVC095 M04/M09 A2998 RMK AO2 SLP175 T10441089 FZRANO

10-Day Weather Forecast

Almanac

Astronomy

Dec. 06, 2016 Rise Set
Actual Time
Civil Twilight
Nautical Twilight
Astronomical Twilight
Moon
Length of Visible Light
Length of Day
Tomorrow will be .
, % of the Moon is Illuminated

Today's Extremes

State Highs State Lows

Community

WunderPhotos

Upload Photos

1,955,935 photos uploaded!

WunderBlog® & News

Nearby

Air Quality

  Air Quality AQ Index Pollutant
Not available.

Snow Depth

Station Depth Elevation

Earthquake Activity

City Distance Mag. Time & Date
Minimum magnitude displayed is 2.5.

Coastal Water Temperatures

Place Temperature

Stations

Nearby Weather Stations

Station Location Temp. Windchill Dew Point Humidity Wind Precip. Elev Updated Type
                   

Watches & Warnings

There are currently no watches in effect.